Time;durP1;ratioP1;P1;durP2;ratioP2;P2;SDS_P1;SDS_P2;PMS_P1;PMS_P2;Temp;Humidity;BMP_temperature;BMP_pressure;BME280_temperature;BME280_humidity;BME280_pressure;Samples;Min_cycle;Max_cycle;Signal;HPM_P1;HPM_P2
2022/06/15 00:00:07;;;;;;;;;;;;;;;24.31;58.75;99477.66;2067483;28;20362;-62
2022/06/15 00:01:13;;;;;;;;;;;;;;;24.32;58.78;99482.09;2071734;28;19913;-62
2022/06/15 00:02:14;;;;;;;;;;;;;;;24.32;58.85;99479.34;2068112;28;19983;-62
2022/06/15 00:03:14;;;;;;;;;;;;;;;24.32;58.67;99478.50;2066733;28;20556;-62
2022/06/15 00:04:15;;;;;;;;;;;;;;;24.32;58.74;99467.47;2065828;28;19982;-62
2022/06/15 00:05:15;;;;;;;;;;;;;;;24.31;58.87;99469.38;2065564;28;20003;-62
2022/06/15 00:06:17;;;;;;;;;;;;;;;24.32;58.83;99479.34;2067401;28;19932;-62
2022/06/15 00:07:18;;;;;;;;;;;;;;;24.32;58.78;99478.50;2062905;28;19918;-62
2022/06/15 00:08:19;;;;;;;;;;;;;;;24.32;58.84;99465.56;2067900;28;20369;-62
2022/06/15 00:09:19;;;;;;;;;;;;;;;24.32;58.72;99473.84;2067608;28;20414;-62
2022/06/15 00:10:20;;;;;;;;;;;;;;;24.32;58.78;99475.75;2065904;28;20494;-62
2022/06/15 00:11:20;;;;;;;;;;;;;;;24.32;58.80;99473.00;2071373;28;20383;-62
2022/06/15 00:12:20;;;;;;;;;;;;;;;24.32;58.67;99473.00;2065374;28;20852;-62
2022/06/15 00:13:21;;;;;;;;;;;;;;;24.32;58.85;99467.47;2067118;28;20015;-62
2022/06/15 00:14:22;;;;;;;;;;;;;;;24.32;58.83;99468.31;2071741;28;20394;-62
2022/06/15 00:15:23;;;;;;;;;;;;;;;24.32;58.83;99468.31;2066264;28;20021;-62
2022/06/15 00:16:23;;;;;;;;;;;;;;;24.33;58.80;99474.72;2066738;28;19921;-62
2022/06/15 00:17:24;;;;;;;;;;;;;;;24.31;58.88;99472.16;2065550;28;19923;-62
2022/06/15 00:18:28;;;;;;;;;;;;;;;24.32;58.71;99467.47;2066884;28;19936;-62
2022/06/15 00:19:28;;;;;;;;;;;;;;;24.32;58.79;99467.47;2070420;28;20011;-62
2022/06/15 00:20:28;;;;;;;;;;;;;;;24.32;58.76;99462.81;2070603;28;19912;-62
2022/06/15 00:21:29;;;;;;;;;;;;;;;24.32;58.80;99462.81;2065625;28;19948;-62
2022/06/15 00:22:29;;;;;;;;;;;;;;;24.32;58.71;99454.56;2067427;28;19913;-62
2022/06/15 00:23:30;;;;;;;;;;;;;;;24.32;58.68;99462.81;2067807;28;19909;-62
2022/06/15 00:24:30;;;;;;;;;;;;;;;24.31;58.78;99455.63;2071879;28;19940;-63
2022/06/15 00:25:30;;;;;;;;;;;;;;;24.32;58.71;99456.47;2064518;28;20197;-62
2022/06/15 00:26:31;;;;;;;;;;;;;;;24.32;58.78;99465.56;2059642;28;19986;-62
2022/06/15 00:27:31;;;;;;;;;;;;;;;24.32;58.82;99461.97;2065012;28;19910;-62
2022/06/15 00:28:32;;;;;;;;;;;;;;;24.33;58.70;99458.19;2066543;28;19917;-62
2022/06/15 00:29:37;;;;;;;;;;;;;;;24.32;58.72;99457.31;2067060;28;19959;-62
2022/06/15 00:30:37;;;;;;;;;;;;;;;24.31;58.82;99461.13;2065799;28;20323;-62
2022/06/15 00:31:38;;;;;;;;;;;;;;;24.31;58.75;99461.13;2061268;28;19939;-63
2022/06/15 00:32:38;;;;;;;;;;;;;;;24.31;58.74;99452.88;2065864;28;20552;-63
2022/06/15 00:33:38;;;;;;;;;;;;;;;24.31;58.71;99455.63;2065339;28;19955;-62
2022/06/15 00:34:38;;;;;;;;;;;;;;;24.30;58.77;99453.94;2063739;28;19909;-62
2022/06/15 00:35:39;;;;;;;;;;;;;;;24.30;58.94;99453.94;2061385;28;20577;-62
2022/06/15 00:36:39;;;;;;;;;;;;;;;24.31;58.87;99454.78;2066481;28;19909;-63
2022/06/15 00:37:39;;;;;;;;;;;;;;;24.31;58.92;99455.63;2062851;28;20288;-62
2022/06/15 00:38:41;;;;;;;;;;;;;;;24.30;58.85;99451.19;2065785;28;19917;-63
2022/06/15 00:39:42;;;;;;;;;;;;;;;24.30;58.87;99448.41;2065855;28;19913;-62
2022/06/15 00:40:42;;;;;;;;;;;;;;;24.31;58.77;99450.09;2066234;28;19971;-62
2022/06/15 00:41:42;;;;;;;;;;;;;;;24.31;58.94;99455.63;2069106;28;19916;-66
2022/06/15 00:42:43;;;;;;;;;;;;;;;24.30;58.73;99453.94;2067816;28;19924;-66
2022/06/15 00:43:45;;;;;;;;;;;;;;;24.31;58.79;99452.88;2066769;28;19940;-66
2022/06/15 00:44:45;;;;;;;;;;;;;;;24.31;58.77;99454.78;2070209;28;19928;-66
2022/06/15 00:45:45;;;;;;;;;;;;;;;24.31;58.80;99452.88;2076993;28;19921;-66
2022/06/15 00:46:47;;;;;;;;;;;;;;;24.30;58.87;99453.94;2076318;28;19959;-66
2022/06/15 00:47:47;;;;;;;;;;;;;;;24.30;58.86;99448.41;2074644;28;20101;-66
2022/06/15 00:48:49;;;;;;;;;;;;;;;24.31;58.85;99455.63;2074552;28;20392;-66
2022/06/15 00:49:53;;;;;;;;;;;;;;;24.31;58.80;99460.28;2069775;28;19935;-66
2022/06/15 00:50:53;;;;;;;;;;;;;;;24.31;58.79;99455.63;2075735;28;20358;-66
2022/06/15 00:51:56;;;;;;;;;;;;;;;24.31;58.79;99450.09;2076535;28;20313;-66
2022/06/15 00:53:02;;;;;;;;;;;;;;;24.31;58.80;99450.09;2074619;28;19921;-66
2022/06/15 00:54:03;;;;;;;;;;;;;;;24.31;58.78;99460.28;2076710;28;19983;-66
2022/06/15 00:55:09;;;;;;;;;;;;;;;24.32;58.80;99461.97;2073402;28;20442;-66
2022/06/15 00:56:10;;;;;;;;;;;;;;;24.30;58.79;99456.69;2070267;28;20330;-66
2022/06/15 00:57:11;;;;;;;;;;;;;;;24.31;58.65;99458.38;2074609;28;19991;-66
2022/06/15 00:58:13;;;;;;;;;;;;;;;24.31;58.74;99452.03;2073138;28;19913;-66
2022/06/15 00:59:15;;;;;;;;;;;;;;;24.30;58.90;99448.41;2068585;28;19919;-66
2022/06/15 01:00:16;;;;;;;;;;;;;;;24.30;58.80;99453.94;2069736;28;20004;-66
2022/06/15 01:01:17;;;;;;;;;;;;;;;24.32;58.69;99462.81;2074008;28;19920;-66
2022/06/15 01:02:17;;;;;;;;;;;;;;;24.32;58.80;99461.97;2071009;28;20541;-66
2022/06/15 01:03:17;;;;;;;;;;;;;;;24.30;58.69;99453.94;2071790;28;20284;-66
2022/06/15 01:04:19;;;;;;;;;;;;;;;24.31;58.80;99455.63;2075746;28;19917;-66
2022/06/15 01:05:22;;;;;;;;;;;;;;;24.31;58.74;99454.78;2070661;28;19920;-66
2022/06/15 01:06:31;;;;;;;;;;;;;;;24.31;58.69;99458.38;2075774;28;19924;-67
2022/06/15 01:07:39;;;;;;;;;;;;;;;24.31;58.71;99466.63;2068127;28;20010;-66
2022/06/15 01:08:45;;;;;;;;;;;;;;;24.31;58.69;99463.88;2071250;28;19955;-66
2022/06/15 01:09:54;;;;;;;;;;;;;;;24.31;58.65;99468.53;2068888;28;19919;-66
2022/06/15 01:10:55;;;;;;;;;;;;;;;24.31;58.69;99469.38;2069352;28;19913;-66
2022/06/15 01:12:02;;;;;;;;;;;;;;;24.32;58.71;99468.31;2073479;28;20358;-66
2022/06/15 01:13:22;;;;;;;;;;;;;;;24.31;58.78;99461.13;2074491;28;19913;-66
2022/06/15 01:14:22;;;;;;;;;;;;;;;24.30;58.78;99470.44;2076206;28;19913;-66
2022/06/15 01:15:36;;;;;;;;;;;;;;;24.32;58.62;99461.97;2070042;28;19913;-66
2022/06/15 01:16:48;;;;;;;;;;;;;;;24.30;58.66;99464.94;2070509;28;20493;-66
2022/06/15 01:17:49;;;;;;;;;;;;;;;24.31;58.69;99465.78;2076339;28;20837;-66
2022/06/15 01:19:01;;;;;;;;;;;;;;;24.31;58.93;99460.28;2070089;28;20365;-66
2022/06/15 01:20:04;;;;;;;;;;;;;;;24.31;58.70;99463.88;2064032;28;19922;-66
2022/06/15 01:21:04;;;;;;;;;;;;;;;24.31;58.70;99466.63;2074073;28;19909;-66
2022/06/15 01:22:11;;;;;;;;;;;;;;;24.31;58.74;99460.28;2074254;28;19916;-66
2022/06/15 01:23:26;;;;;;;;;;;;;;;24.31;58.72;99466.63;2076628;28;19949;-66
2022/06/15 01:24:45;;;;;;;;;;;;;;;24.30;58.75;99467.69;2073781;28;19927;-66
2022/06/15 01:25:51;;;;;;;;;;;;;;;24.31;58.73;99469.38;2076019;28;20581;-66
2022/06/15 01:27:01;;;;;;;;;;;;;;;24.32;58.67;99467.47;2074254;28;20036;-66
2022/06/15 01:28:20;;;;;;;;;;;;;;;24.30;58.83;99467.69;2070367;28;19917;-66
2022/06/15 01:29:33;;;;;;;;;;;;;;;24.31;58.72;99471.31;2075402;28;19994;-66
2022/06/15 01:30:33;;;;;;;;;;;;;;;24.32;58.62;99475.75;2074988;28;19966;-66
2022/06/15 01:31:41;;;;;;;;;;;;;;;24.31;58.78;99472.16;2076039;28;20103;-66
2022/06/15 01:32:48;;;;;;;;;;;;;;;24.32;58.71;99475.75;2077138;28;19920;-62
2022/06/15 01:33:49;;;;;;;;;;;;;;;24.31;58.71;99469.38;2073272;28;19920;-63
2022/06/15 01:34:49;;;;;;;;;;;;;;;24.30;58.72;99470.44;2075138;28;19917;-62
2022/06/15 01:35:55;;;;;;;;;;;;;;;24.31;58.80;99477.66;2075734;28;19966;-62
2022/06/15 01:37:05;;;;;;;;;;;;;;;24.32;58.71;99475.75;2071680;28;19947;-62
2022/06/15 01:38:21;;;;;;;;;;;;;;;24.31;58.58;99482.31;2073088;28;19917;-62
2022/06/15 01:39:24;;;;;;;;;;;;;;;24.31;58.78;99477.66;2075382;28;20571;-62
2022/06/15 01:40:32;;;;;;;;;;;;;;;24.31;58.66;99476.81;2074189;28;19925;-62
2022/06/15 01:41:49;;;;;;;;;;;;;;;24.31;58.80;99480.41;2074516;28;20268;-62
2022/06/15 01:42:53;;;;;;;;;;;;;;;24.31;58.85;99477.66;2074783;28;19920;-62
2022/06/15 01:43:58;;;;;;;;;;;;;;;24.31;58.74;99480.41;2072829;28;19913;-62
2022/06/15 01:45:07;;;;;;;;;;;;;;;24.31;58.73;99479.56;2070966;28;19921;-62
2022/06/15 01:46:08;;;;;;;;;;;;;;;24.30;58.77;99484.22;2066844;28;20546;-62
2022/06/15 01:47:10;;;;;;;;;;;;;;;24.31;58.72;99483.16;2065326;28;20265;-62
2022/06/15 01:48:11;;;;;;;;;;;;;;;24.31;58.63;99488.66;2067636;28;19921;-62
2022/06/15 01:49:27;;;;;;;;;;;;;;;24.30;58.66;99481.47;2066942;28;19970;-63
2022/06/15 01:50:31;;;;;;;;;;;;;;;24.31;58.67;99488.66;2069669;28;20394;-62
2022/06/15 01:51:38;;;;;;;;;;;;;;;24.31;58.80;99474.91;2069177;28;19968;-62
2022/06/15 01:52:45;;;;;;;;;;;;;;;24.31;58.79;99483.16;2069909;28;19924;-62
2022/06/15 01:53:57;;;;;;;;;;;;;;;24.31;58.60;99485.06;2072090;28;19921;-62
2022/06/15 01:55:00;;;;;;;;;;;;;;;24.30;58.74;99475.97;2065520;28;19914;-62
2022/06/15 01:56:04;;;;;;;;;;;;;;;24.30;58.78;99481.47;2072624;28;19917;-62
2022/06/15 01:57:05;;;;;;;;;;;;;;;24.31;58.79;99480.41;2069142;28;19994;-64
2022/06/15 01:58:07;;;;;;;;;;;;;;;24.30;58.88;99483.34;2067776;28;20476;-64
2022/06/15 01:59:13;;;;;;;;;;;;;;;24.30;58.72;99475.09;2077891;28;19935;-62
2022/06/15 02:00:17;;;;;;;;;;;;;;;24.30;58.78;99480.59;2062489;28;19929;-62
2022/06/15 02:01:37;;;;;;;;;;;;;;;24.29;58.82;99478.91;2061300;28;19920;-62
2022/06/15 02:02:37;;;;;;;;;;;;;;;24.29;58.75;99482.50;2052287;28;20118;-63
2022/06/15 02:03:41;;;;;;;;;;;;;;;24.30;58.79;99480.59;2062826;28;19940;-62
2022/06/15 02:04:48;;;;;;;;;;;;;;;24.30;58.70;99486.09;2061284;28;20000;-62
2022/06/15 02:06:10;;;;;;;;;;;;;;;24.30;58.90;99484.22;2069743;28;19921;-62
2022/06/15 02:07:11;;;;;;;;;;;;;;;24.30;58.75;99486.97;2061121;28;19921;-62
2022/06/15 02:08:13;;;;;;;;;;;;;;;24.30;58.85;99486.97;2061364;28;19955;-62
2022/06/15 02:09:18;;;;;;;;;;;;;;;24.31;58.85;99494.19;2059656;28;20310;-62
2022/06/15 02:10:22;;;;;;;;;;;;;;;24.30;58.71;99492.50;2063972;28;20398;-62
2022/06/15 02:11:48;;;;;;;;;;;;;;;24.30;58.70;99492.50;2065984;28;19998;-62
2022/06/15 02:13:07;;;;;;;;;;;;;;;24.30;58.69;99484.22;2062759;28;19932;-62
2022/06/15 02:14:25;;;;;;;;;;;;;;;24.31;58.78;99487.81;2060633;28;19913;-63
2022/06/15 02:15:27;;;;;;;;;;;;;;;24.30;58.69;99484.22;2061668;28;20020;-62
2022/06/15 02:16:30;;;;;;;;;;;;;;;24.29;58.77;99485.25;2068197;28;19917;-63
2022/06/15 02:17:32;;;;;;;;;;;;;;;24.30;58.67;99475.09;2062269;28;19924;-62
2022/06/15 02:18:33;;;;;;;;;;;;;;;24.30;58.59;99478.72;2070209;28;19924;-62
2022/06/15 02:19:43;;;;;;;;;;;;;;;24.30;58.74;99480.59;2069050;28;19917;-62
2022/06/15 02:20:47;;;;;;;;;;;;;;;24.29;58.76;99482.50;2068959;28;19983;-62
2022/06/15 02:21:50;;;;;;;;;;;;;;;24.29;58.77;99474.25;2066819;28;19917;-62
2022/06/15 02:22:51;;;;;;;;;;;;;;;24.30;58.63;99480.59;2065396;28;19928;-62
2022/06/15 02:23:57;;;;;;;;;;;;;;;24.29;58.73;99474.25;2066394;28;20416;-62
2022/06/15 02:24:59;;;;;;;;;;;;;;;24.29;58.71;99481.66;2066841;28;19928;-62
2022/06/15 02:26:01;;;;;;;;;;;;;;;24.30;58.70;99481.47;2070647;28;20430;-62
2022/06/15 02:27:02;;;;;;;;;;;;;;;24.29;58.77;99479.75;2073093;28;19927;-62
2022/06/15 02:28:03;;;;;;;;;;;;;;;24.30;58.66;99478.72;2066220;28;19995;-62
2022/06/15 02:29:09;;;;;;;;;;;;;;;24.29;58.81;99479.75;2070217;28;19925;-62
2022/06/15 02:30:12;;;;;;;;;;;;;;;24.30;58.72;99464.06;2065969;28;19917;-62
2022/06/15 02:31:12;;;;;;;;;;;;;;;24.29;58.65;99474.25;2074698;28;20298;-62
2022/06/15 02:32:16;;;;;;;;;;;;;;;24.30;58.72;99472.34;2066133;28;19913;-62
2022/06/15 02:33:24;;;;;;;;;;;;;;;24.29;58.75;99471.47;2071792;28;19974;-62
2022/06/15 02:34:25;;;;;;;;;;;;;;;24.29;58.60;99470.66;2068187;28;19913;-62
2022/06/15 02:35:25;;;;;;;;;;;;;;;24.29;58.84;99465.97;2064786;28;19996;-62
2022/06/15 02:36:26;;;;;;;;;;;;;;;24.29;58.95;99471.47;2070912;28;19923;-63
2022/06/15 02:37:26;;;;;;;;;;;;;;;24.29;58.67;99462.38;2067941;28;20356;-63
2022/06/15 02:38:28;;;;;;;;;;;;;;;24.30;58.74;99466.81;2063041;28;19913;-62
2022/06/15 02:39:28;;;;;;;;;;;;;;;24.29;58.73;99462.38;2069878;28;19948;-63
2022/06/15 02:40:28;;;;;;;;;;;;;;;24.29;58.67;99467.88;2068823;28;19959;-63
2022/06/15 02:41:29;;;;;;;;;;;;;;;24.29;58.65;99451.38;2065917;28;19920;-62
2022/06/15 02:42:32;;;;;;;;;;;;;;;24.29;58.66;99446.69;2069974;28;19948;-63
2022/06/15 02:43:32;;;;;;;;;;;;;;;24.29;58.73;99440.34;2065119;28;19913;-62
2022/06/15 02:44:34;;;;;;;;;;;;;;;24.29;58.67;99441.19;2061472;28;19921;-64
2022/06/15 02:45:36;;;;;;;;;;;;;;;24.29;58.75;99437.59;2066710;28;19936;-63
2022/06/15 02:46:39;;;;;;;;;;;;;;;24.27;58.73;99435.03;2069176;28;19991;-63
2022/06/15 02:47:41;;;;;;;;;;;;;;;24.28;58.69;99436.75;2069996;28;19909;-62
2022/06/15 02:48:42;;;;;;;;;;;;;;;24.28;58.69;99436.75;2076568;28;19920;-63
2022/06/15 02:49:44;;;;;;;;;;;;;;;24.28;58.67;99439.50;2072583;28;19921;-62
2022/06/15 02:50:50;;;;;;;;;;;;;;;24.29;58.71;99443.09;2072931;28;19920;-63
2022/06/15 02:51:57;;;;;;;;;;;;;;;24.28;58.61;99439.50;2067124;28;19943;-63
2022/06/15 02:53:04;;;;;;;;;;;;;;;24.27;58.86;99448.78;2064148;28;19917;-63
2022/06/15 02:54:07;;;;;;;;;;;;;;;24.28;58.76;99445.00;2068260;28;20445;-63
2022/06/15 02:55:09;;;;;;;;;;;;;;;24.28;58.87;99444.16;2064655;28;20020;-63
2022/06/15 02:56:12;;;;;;;;;;;;;;;24.28;58.80;99450.53;2071924;28;19917;-62
2022/06/15 02:57:12;;;;;;;;;;;;;;;24.28;58.75;99450.53;2064487;28;20443;-63
2022/06/15 02:58:22;;;;;;;;;;;;;;;24.28;58.90;99450.53;2060649;28;19995;-62
2022/06/15 02:59:22;;;;;;;;;;;;;;;24.28;58.88;99456.03;2066974;28;19917;-63
2022/06/15 03:00:23;;;;;;;;;;;;;;;24.28;58.82;99450.53;2069612;28;19913;-63
2022/06/15 03:01:23;;;;;;;;;;;;;;;24.29;58.86;99459.63;2065343;28;19936;-62
2022/06/15 03:02:23;;;;;;;;;;;;;;;24.28;58.75;99460.69;2069150;28;19913;-63
2022/06/15 03:03:25;;;;;;;;;;;;;;;24.29;58.77;99454.97;2069479;28;20420;-62
2022/06/15 03:04:25;;;;;;;;;;;;;;;24.28;58.81;99456.03;2074701;28;19924;-63
2022/06/15 03:05:25;;;;;;;;;;;;;;;24.28;58.74;99461.53;2070766;28;19973;-63
2022/06/15 03:06:27;;;;;;;;;;;;;;;24.29;58.73;99465.97;2069792;28;19967;-63
2022/06/15 03:07:27;;;;;;;;;;;;;;;24.28;58.75;99464.28;2068713;28;19918;-62
2022/06/15 03:08:28;;;;;;;;;;;;;;;24.28;58.80;99461.53;2068063;28;19945;-62
2022/06/15 03:09:28;;;;;;;;;;;;;;;24.28;58.67;99467.03;2069161;28;19913;-62
2022/06/15 03:10:29;;;;;;;;;;;;;;;24.28;58.73;99472.56;2067534;28;19913;-63
2022/06/15 03:11:29;;;;;;;;;;;;;;;24.30;58.75;99464.94;2070059;28;20343;-63
2022/06/15 03:12:29;;;;;;;;;;;;;;;24.29;58.60;99468.72;2059746;28;19920;-62
2022/06/15 03:13:30;;;;;;;;;;;;;;;24.29;58.77;99468.72;2059583;28;20738;-62
2022/06/15 03:14:30;;;;;;;;;;;;;;;24.29;58.75;99474.25;2071672;28;19916;-62
2022/06/15 03:15:31;;;;;;;;;;;;;;;24.28;58.96;99472.56;2066246;28;20008;-62
2022/06/15 03:16:31;;;;;;;;;;;;;;;24.29;58.77;99468.72;2067479;28;20023;-62
2022/06/15 03:17:31;;;;;;;;;;;;;;;24.29;58.72;99465.97;2066032;28;19917;-62
2022/06/15 03:18:32;;;;;;;;;;;;;;;24.29;58.76;99474.25;2068659;28;20053;-62
2022/06/15 03:19:32;;;;;;;;;;;;;;;24.29;58.77;99477.00;2070541;28;19971;-62
2022/06/15 03:20:33;;;;;;;;;;;;;;;24.28;58.76;99472.56;2071949;28;19935;-62
2022/06/15 03:21:34;;;;;;;;;;;;;;;24.29;58.77;99477.00;2066905;28;19924;-62
2022/06/15 03:22:34;;;;;;;;;;;;;;;24.28;58.65;99466.19;2069568;28;20491;-62
2022/06/15 03:23:35;;;;;;;;;;;;;;;24.28;58.75;99466.19;2069666;28;19921;-62
2022/06/15 03:24:35;;;;;;;;;;;;;;;24.28;58.67;99456.03;2067759;28;19917;-62
2022/06/15 03:25:36;;;;;;;;;;;;;;;24.28;58.75;99456.03;2066341;28;19921;-62
2022/06/15 03:26:37;;;;;;;;;;;;;;;24.28;58.77;99458.78;2070188;28;19917;-62
2022/06/15 03:27:37;;;;;;;;;;;;;;;24.29;58.79;99462.38;2068499;28;19962;-62
2022/06/15 03:28:37;;;;;;;;;;;;;;;24.27;58.74;99459.81;2058425;28;19956;-62
2022/06/15 03:29:37;;;;;;;;;;;;;;;24.28;58.66;99458.78;2059548;28;19999;-62
2022/06/15 03:30:38;;;;;;;;;;;;;;;24.28;58.76;99466.19;2065939;28;19952;-62
2022/06/15 03:31:39;;;;;;;;;;;;;;;24.28;58.65;99464.28;2069151;28;19913;-62
2022/06/15 03:32:39;;;;;;;;;;;;;;;24.28;58.72;99467.03;2068171;28;19982;-62
2022/06/15 03:33:39;;;;;;;;;;;;;;;24.28;58.71;99469.78;2067442;28;19917;-62
2022/06/15 03:34:40;;;;;;;;;;;;;;;24.28;58.76;99466.19;2070075;28;20402;-62
2022/06/15 03:35:40;;;;;;;;;;;;;;;24.27;58.44;99465.31;2069730;28;20655;-62
2022/06/15 03:36:40;;;;;;;;;;;;;;;24.27;58.70;99462.56;2069308;28;20613;-62
2022/06/15 03:37:41;;;;;;;;;;;;;;;24.27;58.77;99476.34;2071734;28;19920;-62
2022/06/15 03:38:41;;;;;;;;;;;;;;;24.28;58.75;99468.94;2067585;28;19952;-62
2022/06/15 03:39:41;;;;;;;;;;;;;;;24.27;58.75;99470.81;2066685;28;19913;-62
2022/06/15 03:40:44;;;;;;;;;;;;;;;24.27;58.77;99465.31;2067718;28;20016;-62
2022/06/15 03:41:44;;;;;;;;;;;;;;;24.28;58.76;99472.56;2070252;28;19920;-63
2022/06/15 03:42:44;;;;;;;;;;;;;;;24.28;58.81;99480.81;2068020;28;19913;-62
2022/06/15 03:43:44;;;;;;;;;;;;;;;24.28;58.81;99474.47;2068847;28;19951;-62
2022/06/15 03:44:45;;;;;;;;;;;;;;;24.28;58.84;99483.56;2065487;28;19924;-62
2022/06/15 03:45:45;;;;;;;;;;;;;;;24.28;58.72;99485.47;2068100;28;19928;-62
2022/06/15 03:46:46;;;;;;;;;;;;;;;24.28;58.67;99479.97;2067713;28;19917;-62
2022/06/15 03:47:46;;;;;;;;;;;;;;;24.28;58.77;99482.72;2066355;28;20394;-62
2022/06/15 03:48:46;;;;;;;;;;;;;;;24.28;58.65;99489.06;2068727;28;19949;-62
2022/06/15 03:49:48;;;;;;;;;;;;;;;24.28;58.74;99488.22;2063977;28;20446;-62
2022/06/15 03:50:48;;;;;;;;;;;;;;;24.28;58.84;99489.06;2066746;28;19909;-62
2022/06/15 03:51:48;;;;;;;;;;;;;;;24.28;58.71;99491.81;2062496;28;19924;-63
2022/06/15 03:52:50;;;;;;;;;;;;;;;24.28;58.76;99494.59;2062795;28;19955;-61
2022/06/15 03:53:50;;;;;;;;;;;;;;;24.28;58.83;99496.50;2064243;28;20765;-62
2022/06/15 03:54:50;;;;;;;;;;;;;;;24.28;58.76;99491.81;2064003;28;20299;-62
2022/06/15 03:55:51;;;;;;;;;;;;;;;24.28;58.71;99500.09;2066254;28;19917;-62
2022/06/15 03:56:51;;;;;;;;;;;;;;;24.28;58.71;99493.75;2066277;28;19929;-62
2022/06/15 03:57:51;;;;;;;;;;;;;;;24.28;58.67;99499.25;2070344;28;19975;-62
2022/06/15 03:58:51;;;;;;;;;;;;;;;24.28;58.73;99500.09;2059830;28;19917;-62
2022/06/15 03:59:52;;;;;;;;;;;;;;;24.29;58.83;99507.28;2069825;28;19917;-62
2022/06/15 04:00:52;;;;;;;;;;;;;;;24.28;58.74;99505.59;2068108;28;20540;-62
2022/06/15 04:01:52;;;;;;;;;;;;;;;24.28;58.66;99499.25;2066375;28;19951;-63
2022/06/15 04:02:53;;;;;;;;;;;;;;;24.28;58.63;99505.59;2068254;28;20468;-62
2022/06/15 04:03:53;;;;;;;;;;;;;;;24.28;58.74;99500.09;2071227;28;20232;-62
2022/06/15 04:04:54;;;;;;;;;;;;;;;24.29;58.72;99506.44;2072015;28;19920;-63
2022/06/15 04:05:55;;;;;;;;;;;;;;;24.27;58.76;99498.38;2068260;28;20105;-63
2022/06/15 04:06:56;;;;;;;;;;;;;;;24.28;58.66;99505.59;2074011;28;19917;-63
2022/06/15 04:09:21;;;;;;;;;;;;;;;24.28;58.62;99504.75;2068050;28;19917;-62
2022/06/15 04:10:21;;;;;;;;;;;;;;;24.27;58.75;99509.38;2069985;28;20375;-62
2022/06/15 04:12:42;;;;;;;;;;;;;;;24.27;58.46;99520.41;2068780;28;20000;-62
2022/06/15 04:13:42;;;;;;;;;;;;;;;24.28;58.79;99516.63;2066133;28;19917;-62
2022/06/15 04:14:42;;;;;;;;;;;;;;;24.27;58.81;99523.16;2067166;28;19924;-62
2022/06/15 04:15:43;;;;;;;;;;;;;;;24.27;58.86;99523.16;2065705;28;20852;-62
2022/06/15 04:16:43;;;;;;;;;;;;;;;24.27;58.79;99531.41;2069125;28;19913;-62
2022/06/15 04:17:46;;;;;;;;;;;;;;;24.26;58.76;99518.72;2066551;28;19977;-62
2022/06/15 04:18:46;;;;;;;;;;;;;;;24.27;58.67;99520.41;2069071;28;19979;-63
2022/06/15 04:20:31;;;;;;;;;;;;;;;24.27;58.88;99525.06;2068921;28;19917;-63
2022/06/15 04:21:07;;;;;;;;;;;;;;;24.28;58.75;99527.63;2068231;28;19917;-64
2022/06/15 04:22:07;;;;;;;;;;;;;;;24.27;58.71;99517.66;2067648;28;19910;-63
2022/06/15 04:23:10;;;;;;;;;;;;;;;24.27;58.68;99525.06;2067872;28;19947;-63
2022/06/15 04:24:11;;;;;;;;;;;;;;;24.27;58.71;99523.16;2065166;28;19913;-63
2022/06/15 04:25:11;;;;;;;;;;;;;;;24.27;58.76;99531.41;2068873;28;19932;-63
2022/06/15 04:26:12;;;;;;;;;;;;;;;24.26;58.74;99528.88;2067628;28;19917;-63
2022/06/15 04:27:14;;;;;;;;;;;;;;;24.27;58.63;99531.41;2067200;28;19917;-63
2022/06/15 04:28:15;;;;;;;;;;;;;;;24.27;58.62;99534.16;2069436;28;20905;-63
2022/06/15 04:29:17;;;;;;;;;;;;;;;24.27;58.66;99528.66;2068544;28;19948;-64
2022/06/15 04:30:17;;;;;;;;;;;;;;;24.27;58.77;99528.66;2067270;28;19921;-63
2022/06/15 04:31:18;;;;;;;;;;;;;;;24.27;58.74;99531.41;2058649;28;19964;-63
2022/06/15 04:32:18;;;;;;;;;;;;;;;24.27;58.71;99536.06;2064874;28;19921;-63
2022/06/15 04:33:18;;;;;;;;;;;;;;;24.26;58.74;99529.72;2068878;28;19927;-63
2022/06/15 04:34:18;;;;;;;;;;;;;;;24.27;58.75;99542.44;2071316;28;20003;-63
2022/06/15 04:35:19;;;;;;;;;;;;;;;24.27;58.79;99539.69;2069411;28;20780;-63
2022/06/15 04:36:21;;;;;;;;;;;;;;;24.27;58.86;99536.06;2068153;28;20369;-63
2022/06/15 04:37:21;;;;;;;;;;;;;;;24.26;58.73;99529.72;2070814;28;19948;-63
2022/06/15 04:38:21;;;;;;;;;;;;;;;24.25;58.79;99533.50;2067546;28;19917;-63
2022/06/15 04:39:21;;;;;;;;;;;;;;;24.26;58.71;99537.16;2065784;28;20351;-63
2022/06/15 04:40:22;;;;;;;;;;;;;;;24.25;58.67;99544.53;2065957;28;19924;-64
2022/06/15 04:41:22;;;;;;;;;;;;;;;24.26;58.75;99540.75;2067488;28;19925;-63
2022/06/15 04:42:23;;;;;;;;;;;;;;;24.26;58.69;99539.91;2065619;28;19921;-63
2022/06/15 04:43:23;;;;;;;;;;;;;;;24.25;58.72;99544.53;2065104;28;20016;-63
2022/06/15 04:44:24;;;;;;;;;;;;;;;24.27;58.86;99547.09;2065080;28;19913;-63
2022/06/15 04:45:24;;;;;;;;;;;;;;;24.26;58.79;99543.50;2069047;28;19925;-64
2022/06/15 04:46:24;;;;;;;;;;;;;;;24.25;58.68;99550.03;2076060;28;19917;-64
2022/06/15 04:47:25;;;;;;;;;;;;;;;24.26;58.79;99551.75;2072552;28;19959;-64
2022/06/15 04:48:25;;;;;;;;;;;;;;;24.26;58.71;99561.94;2073834;28;19909;-63
2022/06/15 04:49:25;;;;;;;;;;;;;;;24.26;58.74;99560.03;2076214;28;19999;-63
2022/06/15 04:50:26;;;;;;;;;;;;;;;24.26;58.58;99560.03;2072717;28;19917;-63
2022/06/15 04:51:27;;;;;;;;;;;;;;;24.26;58.81;99561.94;2075873;28;19912;-64
2022/06/15 04:52:27;;;;;;;;;;;;;;;24.26;58.63;99561.94;2072676;28;19917;-64
2022/06/15 04:53:28;;;;;;;;;;;;;;;24.26;58.71;99562.78;2074118;28;19913;-64
2022/06/15 04:54:28;;;;;;;;;;;;;;;24.27;58.68;99569.13;2076154;28;20298;-64
2022/06/15 04:55:29;;;;;;;;;;;;;;;24.27;58.77;99566.38;2073615;28;19913;-64
2022/06/15 04:56:29;;;;;;;;;;;;;;;24.27;58.83;99571.88;2075916;28;19916;-63
2022/06/15 04:57:30;;;;;;;;;;;;;;;24.26;58.68;99567.44;2075636;28;19952;-64
2022/06/15 04:58:30;;;;;;;;;;;;;;;24.26;58.64;99568.28;2075385;28;19948;-63
2022/06/15 04:59:30;;;;;;;;;;;;;;;24.26;58.70;99568.28;2076777;28;19924;-64
2022/06/15 05:00:35;;;;;;;;;;;;;;;24.26;58.69;99570.19;2069925;28;20357;-64
2022/06/15 05:01:35;;;;;;;;;;;;;;;24.27;58.73;99581.00;2072792;28;19991;-64
2022/06/15 05:02:36;;;;;;;;;;;;;;;24.25;58.60;99572.06;2075584;28;19920;-64
2022/06/15 05:03:37;;;;;;;;;;;;;;;24.26;58.63;99576.53;2076215;28;19908;-64
2022/06/15 05:04:37;;;;;;;;;;;;;;;24.25;58.71;99574.81;2075519;28;20733;-64
2022/06/15 05:05:38;;;;;;;;;;;;;;;24.26;58.89;99567.44;2076437;28;19923;-64
2022/06/15 05:06:39;;;;;;;;;;;;;;;24.25;58.72;99572.06;2074998;28;20019;-64
2022/06/15 05:07:40;;;;;;;;;;;;;;;24.27;58.85;99580.16;2075808;28;19916;-64
2022/06/15 05:08:41;;;;;;;;;;;;;;;24.25;58.76;99579.47;2070833;28;20446;-64
2022/06/15 05:09:47;;;;;;;;;;;;;;;24.25;58.91;99572.06;2070899;28;20401;-64
2022/06/15 05:10:47;;;;;;;;;;;;;;;24.25;58.87;99574.81;2077265;28;19913;-62
2022/06/15 05:11:47;;;;;;;;;;;;;;;24.25;58.77;99571.22;2075111;28;20054;-62
2022/06/15 05:12:48;;;;;;;;;;;;;;;24.24;58.78;99564.88;2073523;28;19948;-62
2022/06/15 05:13:48;;;;;;;;;;;;;;;24.26;58.79;99572.94;2076320;28;19924;-63
2022/06/15 05:14:49;;;;;;;;;;;;;;;24.25;58.64;99572.06;2074203;28;20198;-62
2022/06/15 05:15:50;;;;;;;;;;;;;;;24.25;58.62;99571.22;2075701;28;20007;-62
2022/06/15 05:16:51;;;;;;;;;;;;;;;24.24;58.75;99570.38;2074832;28;19947;-62
2022/06/15 05:17:51;;;;;;;;;;;;;;;24.24;58.80;99575.88;2073568;28;20492;-62
2022/06/15 05:18:52;;;;;;;;;;;;;;;24.25;58.77;99572.06;2077456;28;19917;-66
2022/06/15 05:19:52;;;;;;;;;;;;;;;24.24;58.68;99575.03;2074737;28;19974;-67
2022/06/15 05:20:52;;;;;;;;;;;;;;;24.24;58.70;99570.38;2077242;28;19913;-66
2022/06/15 05:21:52;;;;;;;;;;;;;;;24.24;58.71;99577.78;2073812;28;19920;-65
2022/06/15 05:22:56;;;;;;;;;;;;;;;24.25;58.76;99580.34;2073758;28;19967;-65
2022/06/15 05:23:57;;;;;;;;;;;;;;;24.25;58.77;99580.34;2072502;28;19943;-65
2022/06/15 05:24:57;;;;;;;;;;;;;;;24.25;58.65;99585.00;2077437;28;19943;-66
2022/06/15 05:25:58;;;;;;;;;;;;;;;24.25;58.74;99585.84;2075613;28;19920;-65
2022/06/15 05:26:58;;;;;;;;;;;;;;;24.25;58.82;99580.34;2069733;28;19917;-63
2022/06/15 05:27:59;;;;;;;;;;;;;;;24.25;58.71;99587.75;2071605;28;20100;-63